sensor_id;sensor_type;location;lat;lon;timestamp;temperature;humidity
52656;SHT85;35474;51.032;6.998;2024-01-30T00:00:27;8.44;81.99
52656;SHT85;35474;51.032;6.998;2024-01-30T00:02:54;8.43;82.04
52656;SHT85;35474;51.032;6.998;2024-01-30T00:05:20;8.42;82.00
52656;SHT85;35474;51.032;6.998;2024-01-30T00:07:47;8.39;82.09
52656;SHT85;35474;51.032;6.998;2024-01-30T00:10:14;8.39;82.09
52656;SHT85;35474;51.032;6.998;2024-01-30T00:12:40;8.37;82.04
52656;SHT85;35474;51.032;6.998;2024-01-30T00:15:07;8.28;82.26
52656;SHT85;35474;51.032;6.998;2024-01-30T00:17:36;8.37;82.21
52656;SHT85;35474;51.032;6.998;2024-01-30T00:20:03;8.34;82.36
52656;SHT85;35474;51.032;6.998;2024-01-30T00:22:32;8.34;82.18
52656;SHT85;35474;51.032;6.998;2024-01-30T00:24:58;8.44;81.82
52656;SHT85;35474;51.032;6.998;2024-01-30T00:27:25;8.47;81.67
52656;SHT85;35474;51.032;6.998;2024-01-30T00:29:53;8.46;81.69
52656;SHT85;35474;51.032;6.998;2024-01-30T00:32:19;8.52;81.68
52656;SHT85;35474;51.032;6.998;2024-01-30T00:34:46;8.47;81.65
52656;SHT85;35474;51.032;6.998;2024-01-30T00:37:13;8.44;81.71
52656;SHT85;35474;51.032;6.998;2024-01-30T00:39:39;8.46;81.61
52656;SHT85;35474;51.032;6.998;2024-01-30T00:42:06;8.53;81.74
52656;SHT85;35474;51.032;6.998;2024-01-30T00:44:36;8.49;81.48
52656;SHT85;35474;51.032;6.998;2024-01-30T00:47:05;8.60;81.31
52656;SHT85;35474;51.032;6.998;2024-01-30T00:49:32;8.47;81.56
52656;SHT85;35474;51.032;6.998;2024-01-30T00:52:00;8.57;81.35
52656;SHT85;35474;51.032;6.998;2024-01-30T00:54:27;8.56;81.26
52656;SHT85;35474;51.032;6.998;2024-01-30T00:56:53;8.53;81.38
52656;SHT85;35474;51.032;6.998;2024-01-30T01:00:34;8.47;81.57
52656;SHT85;35474;51.032;6.998;2024-01-30T01:03:01;8.52;81.63
52656;SHT85;35474;51.032;6.998;2024-01-30T01:05:28;8.56;81.51
52656;SHT85;35474;51.032;6.998;2024-01-30T01:07:54;8.53;81.67
52656;SHT85;35474;51.032;6.998;2024-01-30T01:10:21;8.52;81.37
52656;SHT85;35474;51.032;6.998;2024-01-30T01:12:49;8.43;81.73
52656;SHT85;35474;51.032;6.998;2024-01-30T01:15:16;8.43;81.68
52656;SHT85;35474;51.032;6.998;2024-01-30T01:17:42;8.44;81.88
52656;SHT85;35474;51.032;6.998;2024-01-30T01:20:09;8.43;81.74
52656;SHT85;35474;51.032;6.998;2024-01-30T01:22:37;8.54;81.72
52656;SHT85;35474;51.032;6.998;2024-01-30T01:25:05;8.59;81.43
52656;SHT85;35474;51.032;6.998;2024-01-30T01:27:36;8.63;81.25
52656;SHT85;35474;51.032;6.998;2024-01-30T01:30:08;8.52;81.34
52656;SHT85;35474;51.032;6.998;2024-01-30T01:32:36;8.52;81.55
52656;SHT85;35474;51.032;6.998;2024-01-30T01:35:04;8.56;81.35
52656;SHT85;35474;51.032;6.998;2024-01-30T01:37:34;8.59;81.37
52656;SHT85;35474;51.032;6.998;2024-01-30T01:40:01;8.56;81.39
52656;SHT85;35474;51.032;6.998;2024-01-30T01:42:27;8.56;81.43
52656;SHT85;35474;51.032;6.998;2024-01-30T01:44:54;8.57;81.28
52656;SHT85;35474;51.032;6.998;2024-01-30T01:47:21;8.57;81.34
52656;SHT85;35474;51.032;6.998;2024-01-30T01:49:47;8.60;81.19
52656;SHT85;35474;51.032;6.998;2024-01-30T01:52:15;8.56;81.20
52656;SHT85;35474;51.032;6.998;2024-01-30T01:54:41;8.65;81.12
52656;SHT85;35474;51.032;6.998;2024-01-30T01:57:08;8.68;80.99
52656;SHT85;35474;51.032;6.998;2024-01-30T01:59:35;8.71;80.98
52656;SHT85;35474;51.032;6.998;2024-01-30T02:02:03;8.70;80.84
52656;SHT85;35474;51.032;6.998;2024-01-30T02:04:31;8.70;80.91
52656;SHT85;35474;51.032;6.998;2024-01-30T02:06:58;8.67;80.98
52656;SHT85;35474;51.032;6.998;2024-01-30T02:09:25;8.68;80.87
52656;SHT85;35474;51.032;6.998;2024-01-30T02:11:51;8.68;80.90
52656;SHT85;35474;51.032;6.998;2024-01-30T02:14:18;8.65;81.04
52656;SHT85;35474;51.032;6.998;2024-01-30T02:16:45;8.73;80.91
52656;SHT85;35474;51.032;6.998;2024-01-30T02:19:11;8.64;80.93
52656;SHT85;35474;51.032;6.998;2024-01-30T02:21:38;8.67;80.91
52656;SHT85;35474;51.032;6.998;2024-01-30T02:24:05;8.65;81.09
52656;SHT85;35474;51.032;6.998;2024-01-30T02:26:32;8.65;81.05
52656;SHT85;35474;51.032;6.998;2024-01-30T02:28:58;8.71;80.96
52656;SHT85;35474;51.032;6.998;2024-01-30T02:31:25;8.71;80.90
52656;SHT85;35474;51.032;6.998;2024-01-30T02:33:53;8.68;80.96
52656;SHT85;35474;51.032;6.998;2024-01-30T02:36:19;8.73;80.84
52656;SHT85;35474;51.032;6.998;2024-01-30T02:38:46;8.70;80.79
52656;SHT85;35474;51.032;6.998;2024-01-30T02:41:13;8.74;80.81
52656;SHT85;35474;51.032;6.998;2024-01-30T02:43:40;8.71;80.83
52656;SHT85;35474;51.032;6.998;2024-01-30T02:46:07;8.68;80.98
52656;SHT85;35474;51.032;6.998;2024-01-30T02:48:33;8.65;80.98
52656;SHT85;35474;51.032;6.998;2024-01-30T02:51:00;8.68;80.90
52656;SHT85;35474;51.032;6.998;2024-01-30T02:53:26;8.73;80.74
52656;SHT85;35474;51.032;6.998;2024-01-30T02:55:53;8.68;80.81
52656;SHT85;35474;51.032;6.998;2024-01-30T02:58:20;8.68;80.89
52656;SHT85;35474;51.032;6.998;2024-01-30T03:00:46;8.70;80.69
52656;SHT85;35474;51.032;6.998;2024-01-30T03:03:13;8.71;80.77
52656;SHT85;35474;51.032;6.998;2024-01-30T03:05:40;8.77;80.66
52656;SHT85;35474;51.032;6.998;2024-01-30T03:08:06;8.74;80.65
52656;SHT85;35474;51.032;6.998;2024-01-30T03:10:33;8.73;80.76
52656;SHT85;35474;51.032;6.998;2024-01-30T03:13:00;8.80;80.45
52656;SHT85;35474;51.032;6.998;2024-01-30T03:15:27;8.71;80.57
52656;SHT85;35474;51.032;6.998;2024-01-30T03:17:53;8.80;80.50
52656;SHT85;35474;51.032;6.998;2024-01-30T03:20:20;8.78;80.53
52656;SHT85;35474;51.032;6.998;2024-01-30T03:22:47;8.74;80.51
52656;SHT85;35474;51.032;6.998;2024-01-30T03:25:13;8.81;80.29
52656;SHT85;35474;51.032;6.998;2024-01-30T03:27:40;8.87;80.36
52656;SHT85;35474;51.032;6.998;2024-01-30T03:30:07;8.91;80.10
52656;SHT85;35474;51.032;6.998;2024-01-30T03:32:34;8.88;80.13
52656;SHT85;35474;51.032;6.998;2024-01-30T03:35:01;8.88;80.06
52656;SHT85;35474;51.032;6.998;2024-01-30T03:37:27;8.80;80.28
52656;SHT85;35474;51.032;6.998;2024-01-30T03:39:54;8.81;80.40
52656;SHT85;35474;51.032;6.998;2024-01-30T03:42:21;8.87;80.10
52656;SHT85;35474;51.032;6.998;2024-01-30T03:44:48;8.85;80.24
52656;SHT85;35474;51.032;6.998;2024-01-30T03:47:18;8.77;80.35
52656;SHT85;35474;51.032;6.998;2024-01-30T03:49:44;8.78;80.24
52656;SHT85;35474;51.032;6.998;2024-01-30T03:52:11;8.81;80.50
52656;SHT85;35474;51.032;6.998;2024-01-30T03:54:38;8.74;80.47
52656;SHT85;35474;51.032;6.998;2024-01-30T03:57:05;8.74;80.43
52656;SHT85;35474;51.032;6.998;2024-01-30T03:59:32;8.75;80.53
52656;SHT85;35474;51.032;6.998;2024-01-30T04:01:59;8.68;80.73
52656;SHT85;35474;51.032;6.998;2024-01-30T04:04:26;8.68;80.73
52656;SHT85;35474;51.032;6.998;2024-01-30T04:06:53;8.73;80.54
52656;SHT85;35474;51.032;6.998;2024-01-30T04:09:20;8.70;80.46
52656;SHT85;35474;51.032;6.998;2024-01-30T04:11:46;8.68;80.73
52656;SHT85;35474;51.032;6.998;2024-01-30T04:14:13;8.68;80.87
52656;SHT85;35474;51.032;6.998;2024-01-30T04:16:40;8.64;80.91
52656;SHT85;35474;51.032;6.998;2024-01-30T04:19:07;8.59;81.08
52656;SHT85;35474;51.032;6.998;2024-01-30T04:21:33;8.60;81.12
52656;SHT85;35474;51.032;6.998;2024-01-30T04:24:00;8.54;81.14
52656;SHT85;35474;51.032;6.998;2024-01-30T04:26:26;8.60;81.07
52656;SHT85;35474;51.032;6.998;2024-01-30T04:28:53;8.52;81.07
52656;SHT85;35474;51.032;6.998;2024-01-30T04:31:20;8.46;81.27
52656;SHT85;35474;51.032;6.998;2024-01-30T04:33:47;8.47;81.42
52656;SHT85;35474;51.032;6.998;2024-01-30T04:36:14;8.50;81.33
52656;SHT85;35474;51.032;6.998;2024-01-30T04:38:40;8.42;81.59
52656;SHT85;35474;51.032;6.998;2024-01-30T04:41:07;8.44;81.73
52656;SHT85;35474;51.032;6.998;2024-01-30T04:43:34;8.39;81.82
52656;SHT85;35474;51.032;6.998;2024-01-30T04:46:01;8.30;82.06
52656;SHT85;35474;51.032;6.998;2024-01-30T04:48:28;8.21;82.24
52656;SHT85;35474;51.032;6.998;2024-01-30T04:50:54;8.13;82.49
52656;SHT85;35474;51.032;6.998;2024-01-30T04:53:22;8.01;82.81
52656;SHT85;35474;51.032;6.998;2024-01-30T04:55:49;7.99;83.07
52656;SHT85;35474;51.032;6.998;2024-01-30T04:58:15;8.01;83.01
52656;SHT85;35474;51.032;6.998;2024-01-30T05:00:42;7.98;83.00
52656;SHT85;35474;51.032;6.998;2024-01-30T05:03:09;7.99;82.97
52656;SHT85;35474;51.032;6.998;2024-01-30T05:05:35;8.05;82.83
52656;SHT85;35474;51.032;6.998;2024-01-30T05:08:02;7.96;83.05
52656;SHT85;35474;51.032;6.998;2024-01-30T05:10:29;7.95;82.97
52656;SHT85;35474;51.032;6.998;2024-01-30T05:12:56;7.95;83.07
52656;SHT85;35474;51.032;6.998;2024-01-30T05:15:22;7.93;83.11
52656;SHT85;35474;51.032;6.998;2024-01-30T05:17:49;7.92;83.12
52656;SHT85;35474;51.032;6.998;2024-01-30T05:20:16;7.86;83.26
52656;SHT85;35474;51.032;6.998;2024-01-30T05:22:43;7.86;83.19
52656;SHT85;35474;51.032;6.998;2024-01-30T05:25:12;7.79;83.43
52656;SHT85;35474;51.032;6.998;2024-01-30T05:27:39;7.84;83.45
52656;SHT85;35474;51.032;6.998;2024-01-30T05:30:06;7.85;83.47
52656;SHT85;35474;51.032;6.998;2024-01-30T05:32:34;7.78;83.54
52656;SHT85;35474;51.032;6.998;2024-01-30T05:35:01;7.81;83.61
52656;SHT85;35474;51.032;6.998;2024-01-30T05:37:27;7.84;83.57
52656;SHT85;35474;51.032;6.998;2024-01-30T05:39:54;7.71;83.64
52656;SHT85;35474;51.032;6.998;2024-01-30T05:42:21;7.79;83.73
52656;SHT85;35474;51.032;6.998;2024-01-30T05:44:47;7.74;83.83
52656;SHT85;35474;51.032;6.998;2024-01-30T05:47:14;7.72;83.86
52656;SHT85;35474;51.032;6.998;2024-01-30T05:49:40;7.75;83.87
52656;SHT85;35474;51.032;6.998;2024-01-30T05:52:08;7.78;83.56
52656;SHT85;35474;51.032;6.998;2024-01-30T05:54:34;7.79;83.69
52656;SHT85;35474;51.032;6.998;2024-01-30T05:57:01;8.01;83.30
52656;SHT85;35474;51.032;6.998;2024-01-30T05:59:28;7.92;83.30
52656;SHT85;35474;51.032;6.998;2024-01-30T06:01:54;7.88;83.57
52656;SHT85;35474;51.032;6.998;2024-01-30T06:04:21;7.99;83.37
52656;SHT85;35474;51.032;6.998;2024-01-30T06:06:49;7.92;83.43
52656;SHT85;35474;51.032;6.998;2024-01-30T06:09:16;7.95;83.43
52656;SHT85;35474;51.032;6.998;2024-01-30T06:11:43;8.13;83.14
52656;SHT85;35474;51.032;6.998;2024-01-30T06:14:09;8.16;82.77
52656;SHT85;35474;51.032;6.998;2024-01-30T06:16:36;8.06;82.78
52656;SHT85;35474;51.032;6.998;2024-01-30T06:19:02;8.15;82.75
52656;SHT85;35474;51.032;6.998;2024-01-30T06:21:29;8.21;82.95
52656;SHT85;35474;51.032;6.998;2024-01-30T06:23:56;8.16;82.66
52656;SHT85;35474;51.032;6.998;2024-01-30T06:26:23;8.22;82.59
52656;SHT85;35474;51.032;6.998;2024-01-30T06:28:50;8.30;82.37
52656;SHT85;35474;51.032;6.998;2024-01-30T06:31:16;8.29;82.44
52656;SHT85;35474;51.032;6.998;2024-01-30T06:33:43;8.29;82.59
52656;SHT85;35474;51.032;6.998;2024-01-30T06:36:10;8.56;81.99
52656;SHT85;35474;51.032;6.998;2024-01-30T06:38:37;8.61;81.57
52656;SHT85;35474;51.032;6.998;2024-01-30T06:41:03;8.64;81.50
52656;SHT85;35474;51.032;6.998;2024-01-30T06:43:30;8.64;81.53
52656;SHT85;35474;51.032;6.998;2024-01-30T06:45:59;8.67;81.35
52656;SHT85;35474;51.032;6.998;2024-01-30T06:48:26;8.71;81.32
52656;SHT85;35474;51.032;6.998;2024-01-30T06:50:56;8.67;81.28
52656;SHT85;35474;51.032;6.998;2024-01-30T06:53:23;8.71;81.42
52656;SHT85;35474;51.032;6.998;2024-01-30T06:55:51;8.73;81.30
52656;SHT85;35474;51.032;6.998;2024-01-30T06:58:18;8.73;81.35
52656;SHT85;35474;51.032;6.998;2024-01-30T07:00:45;8.70;81.30
52656;SHT85;35474;51.032;6.998;2024-01-30T07:03:12;8.77;81.18
52656;SHT85;35474;51.032;6.998;2024-01-30T07:05:39;8.70;81.33
52656;SHT85;35474;51.032;6.998;2024-01-30T07:08:05;8.75;81.30
52656;SHT85;35474;51.032;6.998;2024-01-30T07:10:32;8.77;81.18
52656;SHT85;35474;51.032;6.998;2024-01-30T07:13:00;8.74;81.27
52656;SHT85;35474;51.032;6.998;2024-01-30T07:15:27;8.73;81.41
52656;SHT85;35474;51.032;6.998;2024-01-30T07:17:53;8.63;81.66
52656;SHT85;35474;51.032;6.998;2024-01-30T07:20:20;8.63;81.88
52656;SHT85;35474;51.032;6.998;2024-01-30T07:22:47;8.63;81.83
52656;SHT85;35474;51.032;6.998;2024-01-30T07:25:14;8.60;81.89
52656;SHT85;35474;51.032;6.998;2024-01-30T07:27:41;8.65;81.96
52656;SHT85;35474;51.032;6.998;2024-01-30T07:32:35;8.57;82.02
52656;SHT85;35474;51.032;6.998;2024-01-30T07:35:01;8.70;81.80
52656;SHT85;35474;51.032;6.998;2024-01-30T07:37:34;8.75;81.59
52656;SHT85;35474;51.032;6.998;2024-01-30T07:40:02;8.71;81.62
52656;SHT85;35474;51.032;6.998;2024-01-30T07:42:30;8.75;81.56
52656;SHT85;35474;51.032;6.998;2024-01-30T07:44:56;8.74;81.54
52656;SHT85;35474;51.032;6.998;2024-01-30T07:47:23;8.87;81.15
52656;SHT85;35474;51.032;6.998;2024-01-30T07:49:50;8.91;81.08
52656;SHT85;35474;51.032;6.998;2024-01-30T07:52:18;8.95;80.94
52656;SHT85;35474;51.032;6.998;2024-01-30T07:54:45;9.02;80.80
52656;SHT85;35474;51.032;6.998;2024-01-30T07:57:11;9.04;80.68
52656;SHT85;35474;51.032;6.998;2024-01-30T07:59:38;9.10;80.70
52656;SHT85;35474;51.032;6.998;2024-01-30T08:02:04;9.15;80.43
52656;SHT85;35474;51.032;6.998;2024-01-30T08:04:31;9.12;80.61
52656;SHT85;35474;51.032;6.998;2024-01-30T08:06:58;9.12;80.42
52656;SHT85;35474;51.032;6.998;2024-01-30T08:09:24;9.16;80.46
52656;SHT85;35474;51.032;6.998;2024-01-30T08:11:51;9.14;80.36
52656;SHT85;35474;51.032;6.998;2024-01-30T08:14:18;9.16;80.39
52656;SHT85;35474;51.032;6.998;2024-01-30T08:16:45;9.19;80.29
52656;SHT85;35474;51.032;6.998;2024-01-30T08:19:11;9.19;80.28
52656;SHT85;35474;51.032;6.998;2024-01-30T08:21:38;9.16;80.40
52656;SHT85;35474;51.032;6.998;2024-01-30T08:24:05;9.25;80.34
52656;SHT85;35474;51.032;6.998;2024-01-30T08:26:33;9.25;80.27
52656;SHT85;35474;51.032;6.998;2024-01-30T08:29:00;9.29;80.15
52656;SHT85;35474;51.032;6.998;2024-01-30T08:31:27;9.33;80.00
52656;SHT85;35474;51.032;6.998;2024-01-30T08:33:55;9.31;80.08
52656;SHT85;35474;51.032;6.998;2024-01-30T08:36:21;9.36;79.96
52656;SHT85;35474;51.032;6.998;2024-01-30T08:38:48;9.49;79.54
52656;SHT85;35474;51.032;6.998;2024-01-30T08:41:21;9.46;79.71
52656;SHT85;35474;51.032;6.998;2024-01-30T08:43:47;9.46;79.66
52656;SHT85;35474;51.032;6.998;2024-01-30T08:46:17;9.47;79.71
52656;SHT85;35474;51.032;6.998;2024-01-30T08:48:44;9.53;79.45
52656;SHT85;35474;51.032;6.998;2024-01-30T08:51:13;9.47;79.62
52656;SHT85;35474;51.032;6.998;2024-01-30T08:53:41;9.50;79.60
52656;SHT85;35474;51.032;6.998;2024-01-30T08:56:08;9.49;79.51
52656;SHT85;35474;51.032;6.998;2024-01-30T08:58:34;9.52;79.59
52656;SHT85;35474;51.032;6.998;2024-01-30T09:01:01;9.63;79.52
52656;SHT85;35474;51.032;6.998;2024-01-30T09:03:30;9.67;79.22
52656;SHT85;35474;51.032;6.998;2024-01-30T09:05:57;9.81;78.82
52656;SHT85;35474;51.032;6.998;2024-01-30T09:08:23;9.77;78.58
52656;SHT85;35474;51.032;6.998;2024-01-30T09:10:50;9.79;78.62
52656;SHT85;35474;51.032;6.998;2024-01-30T09:13:17;9.76;78.51
52656;SHT85;35474;51.032;6.998;2024-01-30T09:15:44;9.81;78.55
52656;SHT85;35474;51.032;6.998;2024-01-30T09:18:10;9.94;78.39
52656;SHT85;35474;51.032;6.998;2024-01-30T09:20:40;10.02;77.97
52656;SHT85;35474;51.032;6.998;2024-01-30T09:23:06;10.05;77.67
52656;SHT85;35474;51.032;6.998;2024-01-30T09:25:33;10.42;77.04
52656;SHT85;35474;51.032;6.998;2024-01-30T09:28:00;10.53;76.13
52656;SHT85;35474;51.032;6.998;2024-01-30T09:30:27;10.38;76.67
52656;SHT85;35474;51.032;6.998;2024-01-30T09:32:54;10.41;76.73
52656;SHT85;35474;51.032;6.998;2024-01-30T09:35:21;10.37;76.76
52656;SHT85;35474;51.032;6.998;2024-01-30T09:37:47;10.26;77.17
52656;SHT85;35474;51.032;6.998;2024-01-30T09:40:14;10.26;77.22
52656;SHT85;35474;51.032;6.998;2024-01-30T09:42:48;10.33;77.12
52656;SHT85;35474;51.032;6.998;2024-01-30T09:45:20;10.33;77.01
52656;SHT85;35474;51.032;6.998;2024-01-30T09:47:50;10.33;77.21
52656;SHT85;35474;51.032;6.998;2024-01-30T09:50:17;10.35;76.99
52656;SHT85;35474;51.032;6.998;2024-01-30T09:52:46;10.38;76.97
52656;SHT85;35474;51.032;6.998;2024-01-30T09:55:13;10.49;76.80
52656;SHT85;35474;51.032;6.998;2024-01-30T09:57:41;10.65;76.25
52656;SHT85;35474;51.032;6.998;2024-01-30T10:00:08;10.66;76.02
52656;SHT85;35474;51.032;6.998;2024-01-30T10:02:35;10.60;76.08
52656;SHT85;35474;51.032;6.998;2024-01-30T10:05:02;10.63;76.29
52656;SHT85;35474;51.032;6.998;2024-01-30T10:07:29;10.94;75.48
52656;SHT85;35474;51.032;6.998;2024-01-30T10:09:57;11.55;73.95
52656;SHT85;35474;51.032;6.998;2024-01-30T10:12:27;11.10;74.65
52656;SHT85;35474;51.032;6.998;2024-01-30T10:14:55;11.01;74.90
52656;SHT85;35474;51.032;6.998;2024-01-30T10:17:24;10.97;75.23
52656;SHT85;35474;51.032;6.998;2024-01-30T10:19:59;11.00;74.98
52656;SHT85;35474;51.032;6.998;2024-01-30T10:22:27;10.87;75.61
52656;SHT85;35474;51.032;6.998;2024-01-30T10:24:54;11.51;74.81
52656;SHT85;35474;51.032;6.998;2024-01-30T10:27:25;11.74;73.11
52656;SHT85;35474;51.032;6.998;2024-01-30T10:29:53;11.42;73.57
52656;SHT85;35474;51.032;6.998;2024-01-30T10:32:19;11.17;74.47
52656;SHT85;35474;51.032;6.998;2024-01-30T10:34:47;11.11;75.01
52656;SHT85;35474;51.032;6.998;2024-01-30T10:37:15;11.06;75.58
52656;SHT85;35474;51.032;6.998;2024-01-30T10:39:43;10.90;75.76
52656;SHT85;35474;51.032;6.998;2024-01-30T10:42:14;10.93;75.93
52656;SHT85;35474;51.032;6.998;2024-01-30T10:47:11;10.99;75.62
52656;SHT85;35474;51.032;6.998;2024-01-30T10:49:40;11.04;75.41
52656;SHT85;35474;51.032;6.998;2024-01-30T10:52:09;11.00;75.73
52656;SHT85;35474;51.032;6.998;2024-01-30T10:54:37;11.17;75.37
52656;SHT85;35474;51.032;6.998;2024-01-30T10:57:04;11.35;75.14
52656;SHT85;35474;51.032;6.998;2024-01-30T10:59:32;11.26;74.85
52656;SHT85;35474;51.032;6.998;2024-01-30T11:01:59;11.20;75.24
52656;SHT85;35474;51.032;6.998;2024-01-30T11:04:27;11.24;75.24
52656;SHT85;35474;51.032;6.998;2024-01-30T11:06:54;11.14;75.20
52656;SHT85;35474;51.032;6.998;2024-01-30T11:09:20;11.18;75.33
52656;SHT85;35474;51.032;6.998;2024-01-30T11:11:48;11.23;75.41
52656;SHT85;35474;51.032;6.998;2024-01-30T11:14:29;11.26;75.10
52656;SHT85;35474;51.032;6.998;2024-01-30T11:16:57;11.37;75.01
52656;SHT85;35474;51.032;6.998;2024-01-30T11:19:25;11.39;75.02
52656;SHT85;35474;51.032;6.998;2024-01-30T11:21:53;11.44;74.89
52656;SHT85;35474;51.032;6.998;2024-01-30T11:24:20;11.42;74.98
52656;SHT85;35474;51.032;6.998;2024-01-30T11:26:56;11.49;74.82
52656;SHT85;35474;51.032;6.998;2024-01-30T11:29:24;11.75;74.38
52656;SHT85;35474;51.032;6.998;2024-01-30T11:31:55;11.78;74.10
52656;SHT85;35474;51.032;6.998;2024-01-30T11:34:22;11.96;73.76
52656;SHT85;35474;51.032;6.998;2024-01-30T11:36:56;11.90;73.78
52656;SHT85;35474;51.032;6.998;2024-01-30T11:39:26;11.93;73.53
52656;SHT85;35474;51.032;6.998;2024-01-30T11:41:53;11.97;73.60
52656;SHT85;35474;51.032;6.998;2024-01-30T11:44:20;11.96;73.60
52656;SHT85;35474;51.032;6.998;2024-01-30T11:46:47;11.95;73.88
52656;SHT85;35474;51.032;6.998;2024-01-30T11:49:15;12.06;73.59
52656;SHT85;35474;51.032;6.998;2024-01-30T11:51:46;12.16;73.25
52656;SHT85;35474;51.032;6.998;2024-01-30T11:54:16;12.23;73.35
52656;SHT85;35474;51.032;6.998;2024-01-30T11:56:43;12.33;73.01
52656;SHT85;35474;51.032;6.998;2024-01-30T11:59:10;12.44;72.80
52656;SHT85;35474;51.032;6.998;2024-01-30T12:01:37;12.38;72.85
52656;SHT85;35474;51.032;6.998;2024-01-30T12:04:04;12.37;72.56
52656;SHT85;35474;51.032;6.998;2024-01-30T12:06:36;12.23;73.42
52656;SHT85;35474;51.032;6.998;2024-01-30T12:09:05;12.24;73.53
52656;SHT85;35474;51.032;6.998;2024-01-30T12:11:32;12.27;73.62
52656;SHT85;35474;51.032;6.998;2024-01-30T12:13:59;12.21;73.57
52656;SHT85;35474;51.032;6.998;2024-01-30T12:16:26;12.17;73.59
52656;SHT85;35474;51.032;6.998;2024-01-30T12:18:59;12.12;73.80
52656;SHT85;35474;51.032;6.998;2024-01-30T12:21:28;12.13;73.83
52656;SHT85;35474;51.032;6.998;2024-01-30T12:23:56;12.17;73.69
52656;SHT85;35474;51.032;6.998;2024-01-30T12:26:24;12.17;73.69
52656;SHT85;35474;51.032;6.998;2024-01-30T12:28:55;12.33;73.60
52656;SHT85;35474;51.032;6.998;2024-01-30T12:31:27;12.41;73.24
52656;SHT85;35474;51.032;6.998;2024-01-30T12:33:55;12.54;72.77
52656;SHT85;35474;51.032;6.998;2024-01-30T12:36:24;12.67;72.43
52656;SHT85;35474;51.032;6.998;2024-01-30T12:38:52;12.57;72.27
52656;SHT85;35474;51.032;6.998;2024-01-30T12:41:19;12.74;71.65
52656;SHT85;35474;51.032;6.998;2024-01-30T12:43:46;12.82;71.73
52656;SHT85;35474;51.032;6.998;2024-01-30T12:46:16;12.84;71.45
52656;SHT85;35474;51.032;6.998;2024-01-30T12:48:44;12.84;71.46
52656;SHT85;35474;51.032;6.998;2024-01-30T12:51:11;12.78;71.49
52656;SHT85;35474;51.032;6.998;2024-01-30T12:53:38;12.72;72.04
52656;SHT85;35474;51.032;6.998;2024-01-30T12:56:05;12.61;72.31
52656;SHT85;35474;51.032;6.998;2024-01-30T12:58:33;12.84;72.43
52656;SHT85;35474;51.032;6.998;2024-01-30T13:00:59;12.68;72.04
52656;SHT85;35474;51.032;6.998;2024-01-30T13:03:26;12.78;71.95
52656;SHT85;35474;51.032;6.998;2024-01-30T13:05:53;12.54;72.70
52656;SHT85;35474;51.032;6.998;2024-01-30T13:08:21;13.02;71.51
52656;SHT85;35474;51.032;6.998;2024-01-30T13:10:48;12.72;72.26
52656;SHT85;35474;51.032;6.998;2024-01-30T13:13:15;12.82;72.19
52656;SHT85;35474;51.032;6.998;2024-01-30T13:15:46;12.72;72.19
52656;SHT85;35474;51.032;6.998;2024-01-30T13:18:14;12.93;71.83
52656;SHT85;35474;51.032;6.998;2024-01-30T13:20:41;12.75;72.31
52656;SHT85;35474;51.032;6.998;2024-01-30T13:23:10;12.85;72.53
52656;SHT85;35474;51.032;6.998;2024-01-30T13:25:37;12.84;72.28
52656;SHT85;35474;51.032;6.998;2024-01-30T13:28:04;12.91;72.26
52656;SHT85;35474;51.032;6.998;2024-01-30T13:30:30;12.84;72.65
52656;SHT85;35474;51.032;6.998;2024-01-30T13:32:57;12.84;72.73
52656;SHT85;35474;51.032;6.998;2024-01-30T13:35:25;12.74;73.17
52656;SHT85;35474;51.032;6.998;2024-01-30T13:37:51;12.72;73.15
52656;SHT85;35474;51.032;6.998;2024-01-30T13:40:18;12.79;73.48
52656;SHT85;35474;51.032;6.998;2024-01-30T13:42:45;12.74;73.88
52656;SHT85;35474;51.032;6.998;2024-01-30T13:45:12;12.68;74.21
52656;SHT85;35474;51.032;6.998;2024-01-30T13:47:38;12.67;74.89
52656;SHT85;35474;51.032;6.998;2024-01-30T13:50:05;12.76;75.70
52656;SHT85;35474;51.032;6.998;2024-01-30T13:52:33;12.74;75.99
52656;SHT85;35474;51.032;6.998;2024-01-30T13:55:09;12.76;76.32
52656;SHT85;35474;51.032;6.998;2024-01-30T13:57:39;12.79;76.29
52656;SHT85;35474;51.032;6.998;2024-01-30T14:00:06;12.75;76.56
52656;SHT85;35474;51.032;6.998;2024-01-30T14:02:33;12.74;76.73
52656;SHT85;35474;51.032;6.998;2024-01-30T14:05:00;12.72;76.69
52656;SHT85;35474;51.032;6.998;2024-01-30T14:07:27;12.68;76.89
52656;SHT85;35474;51.032;6.998;2024-01-30T14:09:54;12.68;76.94
52656;SHT85;35474;51.032;6.998;2024-01-30T14:12:22;12.65;77.16
52656;SHT85;35474;51.032;6.998;2024-01-30T14:14:48;12.60;77.22
52656;SHT85;35474;51.032;6.998;2024-01-30T14:17:15;12.65;77.24
52656;SHT85;35474;51.032;6.998;2024-01-30T14:19:42;12.64;77.29
52656;SHT85;35474;51.032;6.998;2024-01-30T14:22:09;12.61;77.38
52656;SHT85;35474;51.032;6.998;2024-01-30T14:24:35;12.63;77.37
52656;SHT85;35474;51.032;6.998;2024-01-30T14:27:03;12.65;77.20
52656;SHT85;35474;51.032;6.998;2024-01-30T14:29:30;12.63;77.43
52656;SHT85;35474;51.032;6.998;2024-01-30T14:31:57;12.61;77.49
52656;SHT85;35474;51.032;6.998;2024-01-30T14:34:23;12.61;77.54
52656;SHT85;35474;51.032;6.998;2024-01-30T14:36:50;12.63;77.42
52656;SHT85;35474;51.032;6.998;2024-01-30T14:39:17;12.67;77.38
52656;SHT85;35474;51.032;6.998;2024-01-30T14:41:44;12.65;77.45
52656;SHT85;35474;51.032;6.998;2024-01-30T14:44:11;12.69;77.47
52656;SHT85;35474;51.032;6.998;2024-01-30T14:46:37;12.72;77.41
52656;SHT85;35474;51.032;6.998;2024-01-30T14:49:04;12.72;77.74
52656;SHT85;35474;51.032;6.998;2024-01-30T14:51:33;12.68;77.70
52656;SHT85;35474;51.032;6.998;2024-01-30T14:53:59;12.74;77.67
52656;SHT85;35474;51.032;6.998;2024-01-30T14:56:26;12.69;77.90
52656;SHT85;35474;51.032;6.998;2024-01-30T14:58:53;12.72;77.70
52656;SHT85;35474;51.032;6.998;2024-01-30T15:01:20;12.69;77.67
52656;SHT85;35474;51.032;6.998;2024-01-30T15:03:47;12.71;77.66
52656;SHT85;35474;51.032;6.998;2024-01-30T15:06:13;12.68;77.83
52656;SHT85;35474;51.032;6.998;2024-01-30T15:08:43;12.68;77.42
52656;SHT85;35474;51.032;6.998;2024-01-30T15:11:10;12.64;77.49
52656;SHT85;35474;51.032;6.998;2024-01-30T15:13:37;12.68;77.40
52656;SHT85;35474;51.032;6.998;2024-01-30T15:16:04;12.68;77.42
52656;SHT85;35474;51.032;6.998;2024-01-30T15:18:32;12.68;77.37
52656;SHT85;35474;51.032;6.998;2024-01-30T15:20:59;12.65;77.45
52656;SHT85;35474;51.032;6.998;2024-01-30T15:23:25;12.60;77.33
52656;SHT85;35474;51.032;6.998;2024-01-30T15:25:52;12.60;77.48
52656;SHT85;35474;51.032;6.998;2024-01-30T15:28:22;12.61;77.47
52656;SHT85;35474;51.032;6.998;2024-01-30T15:31:07;12.54;77.65
52656;SHT85;35474;51.032;6.998;2024-01-30T15:33:34;12.55;77.63
52656;SHT85;35474;51.032;6.998;2024-01-30T15:36:00;12.57;77.46
52656;SHT85;35474;51.032;6.998;2024-01-30T15:38:28;12.58;77.22
52656;SHT85;35474;51.032;6.998;2024-01-30T15:41:00;12.57;77.39
52656;SHT85;35474;51.032;6.998;2024-01-30T15:43:29;12.51;77.49
52656;SHT85;35474;51.032;6.998;2024-01-30T15:45:59;12.48;77.49